Time;durP1;ratioP1;P1;durP2;ratioP2;P2;SDS_P1;SDS_P2;PMS_P1;PMS_P2;Temp;Humidity;BMP_temperature;BMP_pressure;BME280_temperature;BME280_humidity;BME280_pressure;Samples;Min_cycle;Max_cycle;Signal;HPM_P1;HPM_P2
2020/12/19 00:01:10;;;;;;;6.10;5.60;;;11.00;98.60;;;;;;5011982;28;20186;-72
2020/12/19 00:03:36;;;;;;;6.57;5.97;;;11.00;98.70;;;;;;5010752;28;20479;-73
2020/12/19 00:06:06;;;;;;;7.37;6.73;;;11.00;98.80;;;;;;5012093;28;20218;-72
2020/12/19 00:08:31;;;;;;;7.27;5.80;;;11.00;98.50;;;;;;5011232;28;20514;-73
2020/12/19 00:10:57;;;;;;;7.07;6.47;;;10.80;99.00;;;;;;5011982;28;20449;-72
2020/12/19 00:13:22;;;;;;;6.90;6.20;;;10.90;99.20;;;;;;5011760;28;20185;-72
2020/12/19 00:15:48;;;;;;;6.23;5.67;;;10.80;98.90;;;;;;5010908;28;20256;-72
2020/12/19 00:18:14;;;;;;;6.10;5.50;;;10.80;99.20;;;;;;5012022;28;20176;-72
2020/12/19 00:20:40;;;;;;;5.90;5.40;;;10.90;99.20;;;;;;5010280;28;20460;-72
2020/12/19 00:23:05;;;;;;;6.30;5.70;;;11.00;99.00;;;;;;5009852;28;20183;-72
2020/12/19 00:25:31;;;;;;;5.83;5.33;;;11.00;98.90;;;;;;5010205;28;20257;-72
2020/12/19 00:27:57;;;;;;;7.13;6.40;;;11.00;99.00;;;;;;5011796;28;20220;-72
2020/12/19 00:30:23;;;;;;;5.70;5.30;;;11.10;98.80;;;;;;5011517;28;20215;-73
2020/12/19 00:32:48;;;;;;;6.43;5.90;;;11.10;98.50;;;;;;5011057;28;20199;-72
2020/12/19 00:35:14;;;;;;;6.27;5.77;;;11.20;98.40;;;;;;5010288;28;20230;-72
2020/12/19 00:37:42;;;;;;;6.53;5.93;;;11.20;98.20;;;;;;5013277;28;20263;-72
2020/12/19 00:40:08;;;;;;;6.93;6.17;;;11.30;98.60;;;;;;5015575;28;20245;-72
2020/12/19 00:42:38;;;;;;;6.60;5.90;;;11.30;98.10;;;;;;5014403;28;20497;-72
2020/12/19 00:45:06;;;;;;;6.50;5.90;;;11.20;98.20;;;;;;5015150;28;20463;-72
2020/12/19 00:47:37;;;;;;;6.40;5.80;;;11.10;98.50;;;;;;5014481;28;20462;-72
2020/12/19 00:50:05;;;;;;;6.60;6.00;;;11.20;98.50;;;;;;5015454;28;20808;-72
2020/12/19 00:52:31;;;;;;;6.20;5.70;;;11.30;98.30;;;;;;5013995;28;20460;-72
2020/12/19 00:54:57;;;;;;;7.37;5.67;;;11.20;98.10;;;;;;5015054;28;20434;-72
2020/12/19 00:57:22;;;;;;;7.23;5.73;;;11.00;98.80;;;;;;5015076;28;20407;-72
2020/12/19 00:59:48;;;;;;;6.30;5.70;;;10.90;99.30;;;;;;5013901;28;20178;-72
2020/12/19 01:02:14;;;;;;;6.60;5.90;;;11.10;99.10;;;;;;5015181;28;20537;-72
2020/12/19 01:04:39;;;;;;;7.10;5.80;;;11.10;98.80;;;;;;5013922;28;20219;-72
2020/12/19 01:07:10;;;;;;;5.90;5.40;;;11.20;98.60;;;;;;5014977;28;20235;-72
2020/12/19 01:09:36;;;;;;;6.80;6.27;;;11.20;98.80;;;;;;5012891;28;20173;-72
2020/12/19 01:12:05;;;;;;;6.77;6.27;;;11.30;98.50;;;;;;5014890;28;20493;-71
2020/12/19 01:14:31;;;;;;;7.07;6.47;;;11.40;98.40;;;;;;5014008;28;20531;-72
2020/12/19 01:16:56;;;;;;;7.60;6.90;;;11.30;98.20;;;;;;5014689;28;20447;-71
2020/12/19 01:19:22;;;;;;;8.53;6.50;;;11.30;98.30;;;;;;5014623;28;20469;-71
2020/12/19 01:21:48;;;;;;;6.90;6.40;;;11.40;98.30;;;;;;5013788;28;20206;-72
2020/12/19 01:24:13;;;;;;;7.17;6.60;;;11.40;98.20;;;;;;5014074;28;20221;-71
2020/12/19 01:26:39;;;;;;;7.83;7.23;;;11.30;98.20;;;;;;5013768;28;20178;-71
2020/12/19 01:29:05;;;;;;;8.07;6.20;;;11.40;98.40;;;;;;5014202;28;20624;-71
2020/12/19 01:31:30;;;;;;;7.17;6.60;;;11.40;98.30;;;;;;5013641;28;20264;-72
2020/12/19 01:33:56;;;;;;;6.87;6.27;;;11.30;98.40;;;;;;5014277;28;20230;-71
2020/12/19 01:36:23;;;;;;;6.37;5.87;;;11.40;98.40;;;;;;5014262;28;20266;-71
2020/12/19 01:38:50;;;;;;;6.83;6.13;;;11.40;98.50;;;;;;5013576;28;20177;-71
2020/12/19 01:41:16;;;;;;;6.77;6.17;;;11.40;98.30;;;;;;5014388;28;20418;-71
2020/12/19 01:43:50;;;;;;;6.93;6.33;;;11.20;98.50;;;;;;5009464;28;20436;-71
2020/12/19 01:46:51;;;;;;;7.80;7.10;;;11.20;98.90;;;;;;5014279;28;20766;-72
2020/12/19 01:49:18;;;;;;;7.20;6.60;;;11.30;98.80;;;;;;5012458;28;20497;-71
2020/12/19 01:51:47;;;;;;;7.27;6.67;;;11.30;98.70;;;;;;5013005;28;20811;-71
2020/12/19 01:54:13;;;;;;;7.97;7.33;;;11.20;98.60;;;;;;5013721;28;20405;-71
2020/12/19 01:56:39;;;;;;;7.67;6.97;;;11.10;99.10;;;;;;5013149;28;20493;-72
2020/12/19 01:59:05;;;;;;;7.53;6.90;;;11.30;99.10;;;;;;5013969;28;20484;-71
2020/12/19 02:01:31;;;;;;;7.70;7.00;;;11.30;98.80;;;;;;5013029;28;20527;-73
2020/12/19 02:03:57;;;;;;;8.23;7.47;;;11.30;98.80;;;;;;5013696;28;20464;-71
2020/12/19 02:06:24;;;;;;;7.47;6.87;;;11.30;98.90;;;;;;5013872;28;20410;-71
2020/12/19 02:08:52;;;;;;;8.43;7.50;;;11.30;98.70;;;;;;5013065;28;20181;-72
2020/12/19 02:11:19;;;;;;;7.30;6.70;;;11.30;98.60;;;;;;5013407;28;20508;-71
2020/12/19 02:13:45;;;;;;;8.07;7.37;;;11.30;99.00;;;;;;5012652;28;20429;-72
2020/12/19 02:16:19;;;;;;;7.70;6.87;;;11.30;98.70;;;;;;5012472;28;20407;-71
2020/12/19 02:18:46;;;;;;;8.03;7.23;;;11.30;99.10;;;;;;5012854;28;20264;-72
2020/12/19 02:21:12;;;;;;;8.50;7.80;;;11.30;99.00;;;;;;5013453;28;20549;-71
2020/12/19 02:23:38;;;;;;;8.37;7.77;;;11.30;98.90;;;;;;5011477;28;20430;-72
2020/12/19 02:26:04;;;;;;;8.50;7.80;;;11.40;98.80;;;;;;5012080;28;21128;-72
2020/12/19 02:28:30;;;;;;;8.50;7.80;;;11.40;98.80;;;;;;5012837;28;20405;-72
2020/12/19 02:30:55;;;;;;;8.47;7.77;;;11.30;98.80;;;;;;5013283;28;20454;-72
2020/12/19 02:33:21;;;;;;;9.47;8.50;;;11.30;99.00;;;;;;5013524;28;20277;-72
2020/12/19 02:35:47;;;;;;;8.67;7.87;;;11.30;99.10;;;;;;5012599;28;20476;-71
2020/12/19 02:38:13;;;;;;;9.23;8.33;;;11.30;99.10;;;;;;5013247;28;20222;-71
2020/12/19 02:40:38;;;;;;;10.30;9.40;;;11.40;99.10;;;;;;5011772;28;20192;-72
2020/12/19 02:43:04;;;;;;;9.60;8.70;;;11.10;99.50;;;;;;5012304;28;20409;-72
2020/12/19 02:45:30;;;;;;;9.10;8.20;;;11.20;99.80;;;;;;5009666;28;20232;-72
2020/12/19 02:47:56;;;;;;;9.20;8.33;;;11.30;99.50;;;;;;5011903;28;20652;-71
2020/12/19 02:50:22;;;;;;;10.00;9.00;;;11.30;99.20;;;;;;5012699;28;20542;-72
2020/12/19 02:52:47;;;;;;;9.87;8.97;;;11.30;99.40;;;;;;5011526;28;20677;-72
2020/12/19 02:55:13;;;;;;;8.57;7.70;;;11.40;99.50;;;;;;5012931;28;20187;-71
2020/12/19 02:57:39;;;;;;;8.90;7.97;;;11.40;99.20;;;;;;5012112;28;20174;-71
2020/12/19 03:00:05;;;;;;;10.13;8.97;;;11.50;98.80;;;;;;5011975;28;20186;-71
2020/12/19 03:02:31;;;;;;;8.77;8.07;;;11.50;98.50;;;;;;5011819;28;20305;-72
2020/12/19 03:04:57;;;;;;;8.93;8.13;;;11.50;98.00;;;;;;5012725;28;20953;-71
2020/12/19 03:07:23;;;;;;;9.57;8.67;;;11.50;97.60;;;;;;5012490;28;20263;-72
2020/12/19 03:09:49;;;;;;;9.20;8.30;;;11.50;97.70;;;;;;5011661;28;20235;-71
2020/12/19 03:12:15;;;;;;;10.50;9.50;;;11.50;97.70;;;;;;5011737;28;20178;-72
2020/12/19 03:14:41;;;;;;;10.10;9.20;;;11.40;97.80;;;;;;5009792;28;20894;-71
2020/12/19 03:17:07;;;;;;;9.63;8.77;;;11.40;97.80;;;;;;5012523;28;20759;-71
2020/12/19 03:19:32;;;;;;;10.57;9.57;;;11.40;98.00;;;;;;5011551;28;20404;-73
2020/12/19 03:21:58;;;;;;;9.77;8.97;;;11.40;98.30;;;;;;5012054;28;20654;-72
2020/12/19 03:24:24;;;;;;;9.20;8.40;;;11.30;98.20;;;;;;5012569;28;20674;-71
2020/12/19 03:26:49;;;;;;;10.10;9.10;;;11.30;98.40;;;;;;5011254;28;20246;-71
2020/12/19 03:29:15;;;;;;;10.03;9.23;;;11.20;99.00;;;;;;5010832;28;20178;-71
2020/12/19 03:31:41;;;;;;;9.77;8.83;;;11.20;99.60;;;;;;5010977;28;20297;-71
2020/12/19 03:34:07;;;;;;;9.77;8.83;;;11.20;99.50;;;;;;5010957;28;20628;-71
2020/12/19 03:36:32;;;;;;;11.00;8.27;;;11.20;99.30;;;;;;5010179;28;20221;-72
2020/12/19 03:38:58;;;;;;;9.90;8.53;;;11.10;99.50;;;;;;5010833;28;20181;-71
2020/12/19 03:41:24;;;;;;;9.70;8.80;;;11.10;99.80;;;;;;5010712;28;20665;-71
2020/12/19 03:43:50;;;;;;;9.40;8.50;;;11.20;99.60;;;;;;5010136;28;20488;-71
2020/12/19 03:46:16;;;;;;;9.30;8.40;;;11.10;99.60;;;;;;5010918;28;20205;-71
2020/12/19 03:48:42;;;;;;;9.13;8.13;;;11.30;99.70;;;;;;5010456;28;20660;-72
2020/12/19 03:51:09;;;;;;;9.43;8.50;;;11.20;99.20;;;;;;5012268;28;20471;-71
2020/12/19 03:53:35;;;;;;;9.30;8.40;;;11.20;99.10;;;;;;5011571;28;21159;-72
2020/12/19 03:56:00;;;;;;;9.10;8.30;;;11.10;99.30;;;;;;5011814;28;20422;-71
2020/12/19 03:58:26;;;;;;;9.90;9.00;;;11.20;99.30;;;;;;5012248;28;20413;-71
2020/12/19 04:00:52;;;;;;;9.50;8.57;;;11.30;99.10;;;;;;5010295;28;20194;-71
2020/12/19 04:03:17;;;;;;;9.33;8.50;;;11.40;98.80;;;;;;5012110;28;20225;-70
2020/12/19 04:05:43;;;;;;;9.97;8.97;;;11.40;98.60;;;;;;5011342;28;20236;-71
2020/12/19 04:08:09;;;;;;;8.77;8.00;;;11.30;98.50;;;;;;5010954;28;20175;-70
2020/12/19 04:10:35;;;;;;;9.17;8.27;;;11.30;98.90;;;;;;5010607;28;20309;-71
2020/12/19 04:13:00;;;;;;;9.90;8.90;;;11.20;99.20;;;;;;5014554;28;20579;-71
2020/12/19 04:15:26;;;;;;;9.30;8.50;;;11.10;99.40;;;;;;5015386;28;20654;-71
2020/12/19 04:17:52;;;;;;;10.30;9.30;;;11.10;99.70;;;;;;5014867;28;20535;-71
2020/12/19 04:20:19;;;;;;;9.23;8.33;;;11.00;99.80;;;;;;5015702;28;20191;-71
2020/12/19 04:22:45;;;;;;;9.07;8.10;;;10.90;99.90;;;;;;5013618;28;20946;-71
2020/12/19 04:25:11;;;;;;;10.23;9.23;;;10.70;99.90;;;;;;5015383;28;20515;-71
2020/12/19 04:27:38;;;;;;;9.70;8.80;;;10.80;99.90;;;;;;5014799;28;20485;-71
2020/12/19 04:30:06;;;;;;;10.67;9.60;;;11.00;99.90;;;;;;5015316;28;20450;-71
2020/12/19 04:32:31;;;;;;;9.90;8.90;;;10.90;99.90;;;;;;5014591;28;20423;-72
2020/12/19 04:34:57;;;;;;;10.90;9.80;;;10.90;99.90;;;;;;5015729;28;20769;-71
2020/12/19 04:37:24;;;;;;;10.37;9.37;;;10.80;99.90;;;;;;5015349;28;20267;-71
2020/12/19 04:39:50;;;;;;;10.10;9.10;;;10.90;99.90;;;;;;5013394;28;20422;-71
2020/12/19 04:42:16;;;;;;;10.30;9.30;;;11.00;99.90;;;;;;5015600;28;20413;-70
2020/12/19 04:44:42;;;;;;;11.17;9.97;;;11.10;99.90;;;;;;5014275;28;20471;-71
2020/12/19 04:47:08;;;;;;;11.10;10.10;;;11.20;99.60;;;;;;5015194;28;20178;-71
2020/12/19 04:49:36;;;;;;;9.70;8.80;;;11.30;99.30;;;;;;5014373;28;20180;-72
2020/12/19 04:52:02;;;;;;;10.30;9.20;;;11.20;98.90;;;;;;5010817;28;20473;-70
2020/12/19 04:54:28;;;;;;;10.10;9.20;;;11.20;98.70;;;;;;5014931;28;20412;-71
2020/12/19 04:56:58;;;;;;;9.70;8.70;;;11.20;98.80;;;;;;5013552;28;20421;-71
2020/12/19 04:59:23;;;;;;;10.13;9.13;;;11.30;98.50;;;;;;5015121;28;20981;-71
2020/12/19 05:01:49;;;;;;;11.07;10.07;;;11.30;98.00;;;;;;5014076;28;20515;-71
2020/12/19 05:04:15;;;;;;;10.93;9.80;;;11.20;98.80;;;;;;5015100;28;20180;-71
2020/12/19 05:06:41;;;;;;;11.60;10.40;;;11.10;98.50;;;;;;5014198;28;20174;-71
2020/12/19 05:09:09;;;;;;;10.40;9.40;;;11.20;98.80;;;;;;5014928;28;20474;-71
2020/12/19 05:11:36;;;;;;;10.87;9.87;;;11.20;98.60;;;;;;5013974;28;20555;-72
2020/12/19 05:14:04;;;;;;;15.00;8.63;;;11.20;97.90;;;;;;5012727;28;20463;-71
2020/12/19 05:16:31;;;;;;;9.80;9.00;;;11.20;97.70;;;;;;5014284;28;20412;-72
2020/12/19 05:18:57;;;;;;;10.10;9.20;;;11.10;98.10;;;;;;5013552;28;20413;-71
2020/12/19 05:21:24;;;;;;;10.70;9.60;;;11.10;97.90;;;;;;5014744;28;20421;-71
2020/12/19 05:23:50;;;;;;;10.93;9.93;;;11.00;97.70;;;;;;5011815;28;20423;-71
2020/12/19 05:26:16;;;;;;;11.70;10.60;;;11.00;98.20;;;;;;5013143;28;20413;-71
2020/12/19 05:28:44;;;;;;;12.60;11.30;;;10.80;99.30;;;;;;5013708;28;20414;-71
2020/12/19 05:31:11;;;;;;;11.23;10.13;;;10.70;99.90;;;;;;5014438;28;20467;-71
2020/12/19 05:33:42;;;;;;;11.90;10.70;;;10.80;99.90;;;;;;5013530;28;20410;-71
2020/12/19 05:36:21;;;;;;;11.53;10.37;;;10.90;99.90;;;;;;5014505;28;20403;-71
2020/12/19 05:38:47;;;;;;;11.43;10.20;;;10.80;99.90;;;;;;5013583;28;20538;-71
2020/12/19 05:41:14;;;;;;;12.13;10.93;;;10.90;99.90;;;;;;5014107;28;20414;-71
2020/12/19 05:43:47;;;;;;;11.97;10.77;;;10.90;99.90;;;;;;5013140;28;20417;-71
2020/12/19 05:46:27;;;;;;;11.47;10.13;;;10.90;99.90;;;;;;5014240;28;20413;-71
2020/12/19 05:48:55;;;;;;;10.97;10.00;;;10.90;99.90;;;;;;5013758;28;20394;-71
2020/12/19 05:51:21;;;;;;;11.37;10.27;;;10.90;99.90;;;;;;5013771;28;20459;-71
2020/12/19 05:53:51;;;;;;;11.77;10.67;;;10.90;99.90;;;;;;5013298;28;20657;-71
2020/12/19 05:56:19;;;;;;;13.17;11.87;;;10.70;99.90;;;;;;5014101;28;20384;-71
2020/12/19 05:58:46;;;;;;;11.70;10.60;;;10.60;99.90;;;;;;5012959;28;20432;-71
2020/12/19 06:01:14;;;;;;;12.33;11.07;;;10.60;99.90;;;;;;5011647;28;20437;-71
2020/12/19 06:03:44;;;;;;;11.60;10.50;;;10.60;99.90;;;;;;5013194;28;20482;-71
2020/12/19 06:06:12;;;;;;;12.50;11.20;;;10.60;99.90;;;;;;5014068;28;20397;-71
2020/12/19 06:08:38;;;;;;;11.50;10.30;;;10.40;99.90;;;;;;5013001;28;20431;-71
2020/12/19 06:11:09;;;;;;;12.37;11.27;;;10.50;99.90;;;;;;5012771;28;20474;-71
2020/12/19 06:13:37;;;;;;;12.27;11.10;;;10.60;99.90;;;;;;5012621;28;20483;-72
2020/12/19 06:16:10;;;;;;;12.50;11.27;;;10.70;99.90;;;;;;5013392;28;20431;-71
2020/12/19 06:18:48;;;;;;;13.07;11.77;;;10.50;99.90;;;;;;5013153;28;20505;-71
2020/12/19 06:21:15;;;;;;;13.67;12.27;;;10.40;99.90;;;;;;5013146;28;20449;-71
2020/12/19 06:23:41;;;;;;;12.83;11.50;;;10.30;99.90;;;;;;5012268;28;20457;-71
2020/12/19 06:26:09;;;;;;;13.00;11.60;;;10.40;99.90;;;;;;5013245;28;20961;-71
2020/12/19 06:28:43;;;;;;;14.10;12.60;;;10.60;99.90;;;;;;5012708;28;20424;-71
2020/12/19 06:31:19;;;;;;;13.30;11.67;;;10.60;99.90;;;;;;5013122;28;20459;-71
2020/12/19 06:33:51;;;;;;;12.03;10.83;;;10.60;99.90;;;;;;5028518;28;20418;-71
2020/12/19 06:36:17;;;;;;;14.00;12.60;;;10.70;99.90;;;;;;5029297;28;20523;-71
2020/12/19 06:38:50;;;;;;;12.90;11.60;;;10.70;99.90;;;;;;5012456;28;20427;-71
2020/12/19 06:41:42;;;;;;;13.10;11.70;;;10.80;99.90;;;;;;5013338;28;20405;-71
2020/12/19 06:44:17;;;;;;;13.40;12.03;;;10.80;99.90;;;;;;5012729;28;20738;-71
2020/12/19 06:46:44;;;;;;;12.30;11.10;;;10.90;99.90;;;;;;5012608;28;20418;-71
2020/12/19 06:49:25;;;;;;;14.87;12.77;;;11.00;99.90;;;;;;5012812;28;20742;-71
2020/12/19 06:52:10;;;;;;;13.00;11.80;;;11.00;99.90;;;;;;5012042;28;20531;-71
2020/12/19 06:54:46;;;;;;;20.53;16.17;;;11.10;99.90;;;;;;5012039;28;20428;-71
2020/12/19 06:57:21;;;;;;;14.80;12.53;;;11.10;99.90;;;;;;5012622;28;20739;-71
2020/12/19 06:59:46;;;;;;;13.07;11.80;;;11.10;99.90;;;;;;5012024;28;20417;-71
2020/12/19 07:02:13;;;;;;;13.23;11.87;;;11.20;99.90;;;;;;5012633;28;20470;-71
2020/12/19 07:04:39;;;;;;;14.70;13.07;;;11.20;99.90;;;;;;5012118;28;20270;-71
2020/12/19 07:07:08;;;;;;;13.50;12.10;;;11.30;99.90;;;;;;5012397;28;21008;-71
2020/12/19 07:09:34;;;;;;;13.13;11.73;;;11.30;99.90;;;;;;5012027;28;20520;-71
2020/12/19 07:12:00;;;;;;;13.17;11.73;;;11.30;99.90;;;;;;5012030;28;21002;-71
2020/12/19 07:14:41;;;;;;;13.80;12.13;;;11.40;99.90;;;;;;5011940;28;20504;-71
2020/12/19 07:17:17;;;;;;;14.10;12.60;;;11.30;99.90;;;;;;5013103;28;20461;-71
2020/12/19 07:19:47;;;;;;;13.57;12.13;;;11.30;99.90;;;;;;5031387;28;20416;-71
2020/12/19 07:22:12;;;;;;;13.73;12.27;;;11.20;99.90;;;;;;5029070;28;20463;-71
2020/12/19 07:24:39;;;;;;;13.40;12.10;;;11.30;99.90;;;;;;5008619;28;20463;-71
2020/12/19 07:27:04;;;;;;;13.40;12.03;;;11.10;99.90;;;;;;5011648;28;20276;-71
2020/12/19 07:29:30;;;;;;;12.83;11.47;;;11.20;99.90;;;;;;5020052;28;20458;-71
2020/12/19 07:31:59;;;;;;;13.30;11.90;;;11.10;99.90;;;;;;5014301;28;20690;-71
2020/12/19 07:34:25;;;;;;;13.00;11.60;;;11.10;99.90;;;;;;5011832;28;20540;-71
2020/12/19 07:36:53;;;;;;;13.30;11.90;;;11.10;99.90;;;;;;5009384;28;20423;-71
2020/12/19 07:39:20;;;;;;;11.50;10.40;;;11.10;99.90;;;;;;5029146;28;20549;-70
2020/12/19 07:41:59;;;;;;;11.60;10.60;;;11.20;99.90;;;;;;5031280;28;20434;-71
2020/12/19 07:44:26;;;;;;;13.53;12.13;;;11.30;99.90;;;;;;5031497;28;20404;-74
2020/12/19 07:47:11;;;;;;;12.20;11.00;;;11.40;99.90;;;;;;5034107;28;20474;-68
2020/12/19 07:49:44;;;;;;;12.17;10.90;;;11.40;99.90;;;;;;5026170;28;20433;-68
2020/12/19 07:52:18;;;;;;;11.40;10.30;;;11.50;99.90;;;;;;5018195;28;20469;-68
2020/12/19 07:54:57;;;;;;;12.27;11.00;;;11.60;99.90;;;;;;5017419;28;20495;-68
2020/12/19 07:57:24;;;;;;;11.70;10.60;;;11.70;99.90;;;;;;5018700;28;20761;-68
2020/12/19 07:59:50;;;;;;;11.83;10.70;;;11.70;99.90;;;;;;5016591;28;20455;-68
2020/12/19 08:02:17;;;;;;;11.70;10.73;;;11.70;99.90;;;;;;5018792;28;20754;-69
2020/12/19 08:04:54;;;;;;;11.07;10.07;;;11.70;99.90;;;;;;5017276;28;20426;-69
2020/12/19 08:07:30;;;;;;;12.83;11.60;;;11.70;99.90;;;;;;5020277;28;20491;-68
2020/12/19 08:10:05;;;;;;;11.87;10.73;;;11.70;99.90;;;;;;5025770;28;20442;-68
2020/12/19 08:12:31;;;;;;;11.50;10.43;;;11.80;99.90;;;;;;5026939;28;20425;-70
2020/12/19 08:15:03;;;;;;;11.63;10.53;;;11.80;99.90;;;;;;5018287;28;20417;-68
2020/12/19 08:17:29;;;;;;;12.40;10.17;;;11.80;99.90;;;;;;5018712;28;20391;-68
2020/12/19 08:19:59;;;;;;;12.13;10.13;;;11.80;99.90;;;;;;5024371;28;20463;-68
2020/12/19 08:22:27;;;;;;;10.93;9.93;;;11.70;99.90;;;;;;5018083;28;20956;-67
2020/12/19 08:24:53;;;;;;;11.77;10.50;;;11.70;99.90;;;;;;5017435;28;20456;-67
2020/12/19 08:27:40;;;;;;;12.67;11.37;;;11.50;99.90;;;;;;5021884;28;20765;-67
2020/12/19 08:30:09;;;;;;;11.47;10.37;;;11.60;99.90;;;;;;5036813;28;20296;-68
2020/12/19 08:32:38;;;;;;;11.47;10.27;;;11.60;99.90;;;;;;5017584;28;20925;-68
2020/12/19 08:35:05;;;;;;;11.80;10.60;;;11.60;99.90;;;;;;5018022;28;20835;-68
2020/12/19 08:37:31;;;;;;;12.53;10.60;;;11.60;99.90;;;;;;5018223;28;20487;-71
2020/12/19 08:40:07;;;;;;;12.33;11.13;;;11.60;99.90;;;;;;5028833;28;20196;-68
2020/12/19 08:42:34;;;;;;;10.70;9.70;;;11.50;99.90;;;;;;5037623;28;20416;-69
2020/12/19 08:45:16;;;;;;;11.17;10.17;;;11.50;99.90;;;;;;5018753;28;20471;-68
2020/12/19 08:47:43;;;;;;;11.37;10.33;;;11.50;99.90;;;;;;5017804;28;20733;-68
2020/12/19 08:50:10;;;;;;;10.60;9.60;;;11.30;99.90;;;;;;5018161;28;20406;-69
2020/12/19 08:52:36;;;;;;;11.30;10.17;;;11.40;99.90;;;;;;5016883;28;20429;-70
2020/12/19 08:55:03;;;;;;;11.00;9.90;;;11.60;99.90;;;;;;5016942;28;20919;-68
2020/12/19 08:57:30;;;;;;;10.33;9.23;;;11.80;99.90;;;;;;5018424;28;20432;-68
2020/12/19 09:00:14;;;;;;;10.23;9.07;;;12.20;99.90;;;;;;5013496;28;20409;-68
2020/12/19 09:02:43;;;;;;;10.27;9.27;;;13.00;99.40;;;;;;5014359;28;20454;-69
2020/12/19 09:05:10;;;;;;;10.90;9.90;;;13.70;97.10;;;;;;5014856;28;20414;-68
2020/12/19 09:07:36;;;;;;;9.90;9.00;;;14.80;95.70;;;;;;5012956;28;20817;-70
2020/12/19 09:10:28;;;;;;;10.50;9.63;;;15.30;93.60;;;;;;5012695;28;20840;-69
2020/12/19 09:13:10;;;;;;;10.53;9.50;;;16.10;92.20;;;;;;5004420;28;20454;-69
2020/12/19 09:15:36;;;;;;;791.67;518.67;;;16.60;90.50;;;;;;5010717;28;20460;-71
2020/12/19 09:18:16;;;;;;;25.83;22.50;;;17.60;89.50;;;;;;5032042;28;20413;-68
2020/12/19 09:20:43;;;;;;;10.30;9.47;;;17.50;86.40;;;;;;5027318;28;20525;-68
2020/12/19 09:23:09;;;;;;;9.37;8.67;;;18.40;83.90;;;;;;5011234;28;20476;-68
2020/12/19 09:25:35;;;;;;;8.97;8.37;;;19.00;80.10;;;;;;5011532;28;20430;-70
2020/12/19 09:28:01;;;;;;;9.13;8.37;;;19.20;78.40;;;;;;5014387;28;20476;-68
2020/12/19 09:30:27;;;;;;;9.57;8.67;;;19.20;77.80;;;;;;5014499;28;20221;-68
2020/12/19 09:32:52;;;;;;;9.17;8.47;;;19.90;76.00;;;;;;5013488;28;20179;-68
2020/12/19 09:35:18;;;;;;;8.57;7.93;;;20.10;74.70;;;;;;4997122;28;20585;-69
2020/12/19 09:37:44;;;;;;;9.20;8.50;;;20.00;72.80;;;;;;5009655;28;20187;-66
2020/12/19 09:40:10;;;;;;;8.57;7.97;;;20.70;72.40;;;;;;5015036;28;20502;-68
2020/12/19 09:42:35;;;;;;;8.70;8.00;;;20.30;69.50;;;;;;5013799;28;20182;-70
2020/12/19 09:45:01;;;;;;;9.07;8.17;;;19.50;73.90;;;;;;5013864;28;20175;-69
2020/12/19 09:47:27;;;;;;;8.07;7.43;;;19.80;74.20;;;;;;5014185;28;20175;-69
2020/12/19 09:49:53;;;;;;;8.50;7.70;;;20.10;71.50;;;;;;5013101;28;20290;-69
2020/12/19 09:52:18;;;;;;;8.47;7.77;;;19.40;73.00;;;;;;4999927;28;20631;-69
2020/12/19 09:54:44;;;;;;;9.37;8.57;;;18.90;74.80;;;;;;5013827;28;20596;-70
2020/12/19 09:57:10;;;;;;;9.23;8.40;;;19.00;75.70;;;;;;5013522;28;20635;-69
2020/12/19 09:59:35;;;;;;;9.17;8.47;;;19.60;73.60;;;;;;5013295;28;20179;-69
2020/12/19 10:02:01;;;;;;;10.50;9.80;;;20.10;72.20;;;;;;5013541;28;20209;-69
2020/12/19 10:04:27;;;;;;;10.10;9.30;;;20.80;70.00;;;;;;5013246;28;20651;-68
2020/12/19 10:06:52;;;;;;;8.93;8.23;;;19.80;70.80;;;;;;5014877;28;21568;-73
2020/12/19 10:09:18;;;;;;;9.10;8.50;;;20.00;71.30;;;;;;5010412;28;20215;-69
2020/12/19 10:11:44;;;;;;;8.90;8.30;;;20.10;70.10;;;;;;5010891;28;20290;-69
2020/12/19 10:14:10;;;;;;;84.43;59.83;;;20.50;71.10;;;;;;5012364;28;20418;-69
2020/12/19 10:16:36;;;;;;;21.67;19.23;;;20.60;69.10;;;;;;5016109;28;20179;-70
2020/12/19 10:19:02;;;;;;;8.47;7.87;;;20.90;68.80;;;;;;5017436;28;20910;-69
2020/12/19 10:21:27;;;;;;;7.60;7.03;;;21.90;67.30;;;;;;5013202;28;20788;-69
2020/12/19 10:23:53;;;;;;;8.23;7.63;;;22.90;62.90;;;;;;5012531;28;20611;-69
2020/12/19 10:26:20;;;;;;;8.23;7.63;;;22.20;62.80;;;;;;5012371;28;20631;-78
2020/12/19 10:28:46;;;;;;;8.30;7.70;;;22.30;62.50;;;;;;5012046;28;20646;-69
2020/12/19 10:31:11;;;;;;;7.93;7.43;;;22.10;63.00;;;;;;5013353;28;20449;-69
2020/12/19 10:33:37;;;;;;;8.43;7.83;;;22.40;61.60;;;;;;5011432;28;20429;-71
2020/12/19 10:36:03;;;;;;;7.90;7.30;;;22.60;62.40;;;;;;5012567;28;20183;-69
2020/12/19 10:38:29;;;;;;;7.00;6.60;;;22.90;60.10;;;;;;5012698;28;20211;-69
2020/12/19 10:40:54;;;;;;;9.43;8.43;;;22.80;61.50;;;;;;5012260;28;20191;-70
2020/12/19 10:43:20;;;;;;;9.07;8.43;;;22.40;59.90;;;;;;5012370;28;20171;-69
2020/12/19 10:45:46;;;;;;;9.37;8.67;;;22.00;62.60;;;;;;5012150;28;20246;-69
2020/12/19 10:48:12;;;;;;;8.47;7.77;;;21.90;61.90;;;;;;5013143;28;20183;-71
2020/12/19 10:50:37;;;;;;;8.90;8.30;;;21.50;62.70;;;;;;5012602;28;20214;-70
2020/12/19 10:53:03;;;;;;;8.63;8.03;;;20.70;64.50;;;;;;5012802;28;20414;-73
2020/12/19 10:55:29;;;;;;;8.10;7.30;;;20.80;66.40;;;;;;5010581;28;20261;-69
2020/12/19 10:57:55;;;;;;;7.80;7.20;;;20.90;65.50;;;;;;5007405;28;20184;-69
2020/12/19 11:00:20;;;;;;;7.97;7.47;;;21.20;65.40;;;;;;5012060;28;20183;-69
2020/12/19 11:02:46;;;;;;;8.03;7.53;;;20.80;65.80;;;;;;5012412;28;20521;-69
2020/12/19 11:05:12;;;;;;;8.13;7.43;;;20.60;66.10;;;;;;5012945;28;20171;-69
2020/12/19 11:07:37;;;;;;;8.17;7.47;;;20.70;67.10;;;;;;5012781;28;20175;-70
2020/12/19 11:10:03;;;;;;;8.10;7.50;;;20.80;66.90;;;;;;5012586;28;20233;-69
2020/12/19 11:12:29;;;;;;;7.60;7.10;;;21.00;66.60;;;;;;5017079;28;20220;-69
2020/12/19 11:14:55;;;;;;;7.73;7.13;;;21.10;65.90;;;;;;5031572;28;20484;-68
2020/12/19 11:17:21;;;;;;;7.70;7.20;;;20.90;65.20;;;;;;5031895;28;20198;-68
2020/12/19 11:19:46;;;;;;;7.63;7.03;;;20.90;66.90;;;;;;5031432;28;20181;-69
2020/12/19 11:22:12;;;;;;;7.30;6.80;;;21.10;66.40;;;;;;5031648;28;20684;-69
2020/12/19 11:24:38;;;;;;;8.10;7.60;;;20.80;66.40;;;;;;5028559;28;20236;-73
2020/12/19 11:27:04;;;;;;;8.00;7.40;;;20.70;66.90;;;;;;5012036;28;20167;-69
2020/12/19 11:29:29;;;;;;;7.70;7.20;;;20.80;67.30;;;;;;5012207;28;20985;-69
2020/12/19 11:31:55;;;;;;;7.87;7.17;;;20.80;67.20;;;;;;5011744;28;20642;-69
2020/12/19 11:34:21;;;;;;;7.60;7.10;;;20.70;66.50;;;;;;5011807;28;20302;-69
2020/12/19 11:36:47;;;;;;;7.80;7.23;;;20.80;66.30;;;;;;5011163;28;20190;-69
2020/12/19 11:39:14;;;;;;;8.70;8.20;;;20.70;66.00;;;;;;5003425;28;20427;-69
2020/12/19 11:41:43;;;;;;;8.27;7.60;;;20.20;66.50;;;;;;5013067;28;20191;-70
2020/12/19 11:44:10;;;;;;;7.70;7.20;;;19.80;69.40;;;;;;5009267;28;20425;-69
2020/12/19 11:46:36;;;;;;;8.10;7.50;;;19.70;69.10;;;;;;5020669;28;20420;-69
2020/12/19 11:49:02;;;;;;;7.67;7.07;;;19.30;69.90;;;;;;5010969;28;20446;-70
2020/12/19 11:51:33;;;;;;;7.10;6.60;;;18.90;71.40;;;;;;5012003;28;20485;-69
2020/12/19 11:53:59;;;;;;;6.80;6.33;;;19.00;71.90;;;;;;5013247;28;20268;-70
2020/12/19 11:56:26;;;;;;;7.60;7.00;;;18.70;72.00;;;;;;5028865;28;20428;-70
2020/12/19 11:58:52;;;;;;;6.77;6.27;;;18.50;73.40;;;;;;5020313;28;20412;-70
2020/12/19 12:01:18;;;;;;;7.00;6.50;;;18.10;74.70;;;;;;5023472;28;20921;-70
2020/12/19 12:03:43;;;;;;;7.30;6.80;;;17.70;75.70;;;;;;5025927;28;20254;-71
2020/12/19 12:06:09;;;;;;;6.63;6.23;;;17.70;76.50;;;;;;5031951;28;20197;-70
2020/12/19 12:08:40;;;;;;;6.03;5.73;;;17.70;76.80;;;;;;5020817;28;20217;-70
2020/12/19 12:11:07;;;;;;;7.70;7.10;;;17.80;76.40;;;;;;5021297;28;20210;-69
2020/12/19 12:13:32;;;;;;;6.93;6.47;;;17.10;76.20;;;;;;5016717;28;20423;-70
2020/12/19 12:15:58;;;;;;;7.53;6.93;;;16.50;79.20;;;;;;5031498;28;20869;-76
2020/12/19 12:18:24;;;;;;;7.60;7.07;;;16.20;83.30;;;;;;5031889;28;20176;-74
2020/12/19 12:20:51;;;;;;;6.70;6.20;;;15.70;84.40;;;;;;5022715;28;20177;-74
2020/12/19 12:23:17;;;;;;;7.07;6.67;;;16.00;88.60;;;;;;5020634;28;20284;-74
2020/12/19 12:25:42;;;;;;;6.93;6.50;;;15.90;87.50;;;;;;5031158;28;20953;-72
2020/12/19 12:28:08;;;;;;;6.53;6.20;;;15.70;84.60;;;;;;5010417;28;20181;-69
2020/12/19 12:30:34;;;;;;;6.63;6.13;;;15.60;86.20;;;;;;5010196;28;20212;-70
2020/12/19 12:33:00;;;;;;;6.80;6.37;;;15.60;86.50;;;;;;5019855;28;20181;-69
2020/12/19 12:35:26;;;;;;;6.53;6.10;;;15.50;86.50;;;;;;5034991;28;20455;-69
2020/12/19 12:37:51;;;;;;;6.07;5.77;;;15.50;87.40;;;;;;5024273;28;20187;-69
2020/12/19 12:40:17;;;;;;;6.17;5.67;;;15.30;87.60;;;;;;5015477;28;20623;-69
2020/12/19 12:42:43;;;;;;;6.50;6.10;;;15.10;88.10;;;;;;5015747;28;20617;-70